Time;durP1;ratioP1;P1;durP2;ratioP2;P2;SDS_P1;SDS_P2;PMS_P1;PMS_P2;Temp;Humidity;BMP_temperature;BMP_pressure;BME280_temperature;BME280_humidity;BME280_pressure;Samples;Min_cycle;Max_cycle;Signal;HPM_P1;HPM_P2
2022/04/10 00:01:12;;;;;;;;;;;;;;;3.73;73.25;99882.09;4934112;29;20363;-81
2022/04/10 00:03:37;;;;;;;;;;;;;;;3.77;73.40;99879.41;4931867;29;19930;-81
2022/04/10 00:06:02;;;;;;;;;;;;;;;3.80;73.43;99886.38;4935238;29;19954;-82
2022/04/10 00:08:27;;;;;;;;;;;;;;;3.76;73.55;99882.06;4933415;29;19974;-80
2022/04/10 00:10:53;;;;;;;;;;;;;;;3.76;73.46;99893.41;4934788;29;19923;-80
2022/04/10 00:13:18;;;;;;;;;;;;;;;3.77;73.34;99900.38;4932627;29;20297;-81
2022/04/10 00:15:43;;;;;;;;;;;;;;;3.81;73.24;99902.09;4935145;29;19973;-80
2022/04/10 00:18:09;;;;;;;;;;;;;;;3.76;73.12;99903.88;4933824;29;20013;-79
2022/04/10 00:20:34;;;;;;;;;;;;;;;3.80;73.18;99897.72;4934791;29;20044;-80
2022/04/10 00:22:59;;;;;;;;;;;;;;;3.85;73.14;99894.19;4934812;29;19985;-80
2022/04/10 00:25:24;;;;;;;;;;;;;;;3.79;73.00;99897.75;4933072;29;20286;-80
2022/04/10 00:27:50;;;;;;;;;;;;;;;3.81;73.03;99896.84;4933624;29;19923;-80
2022/04/10 00:30:16;;;;;;;;;;;;;;;3.80;72.51;99894.25;4935124;29;19918;-79
2022/04/10 00:32:41;;;;;;;;;;;;;;;3.85;72.75;99902.06;4933549;29;19966;-80
2022/04/10 00:35:07;;;;;;;;;;;;;;;3.85;72.83;99908.16;4933520;29;20442;-80
2022/04/10 00:37:33;;;;;;;;;;;;;;;3.87;72.75;99897.66;4934937;29;19918;-80
2022/04/10 00:39:58;;;;;;;;;;;;;;;3.84;72.40;99913.41;4933585;29;19970;-80
2022/04/10 00:42:30;;;;;;;;;;;;;;;3.90;72.71;99908.94;4932225;29;19926;-80
2022/04/10 00:44:55;;;;;;;;;;;;;;;3.88;72.37;99907.22;4931465;29;20425;-80
2022/04/10 00:47:20;;;;;;;;;;;;;;;3.85;72.46;99902.06;4933488;29;20040;-79
2022/04/10 00:49:46;;;;;;;;;;;;;;;3.90;72.37;99910.72;4933443;29;20370;-79
2022/04/10 00:52:11;;;;;;;;;;;;;;;4.10;73.92;99910.41;4933464;29;20286;-80
2022/04/10 00:54:37;;;;;;;;;;;;;;;4.26;76.23;99908.44;4927726;29;19918;-79
2022/04/10 00:57:03;;;;;;;;;;;;;;;4.29;78.10;99911.03;4932335;29;20382;-80
2022/04/10 00:59:29;;;;;;;;;;;;;;;4.36;79.61;99904.81;4934171;29;19934;-79
2022/04/10 01:01:54;;;;;;;;;;;;;;;4.42;81.04;99909.97;4933450;29;19919;-80
2022/04/10 01:04:19;;;;;;;;;;;;;;;4.45;81.97;99914.28;4934764;29;20393;-80
2022/04/10 03:03:14;;;;;;;;;;;;;;;5.69;100.00;99933.94;4904118;29;20025;-83
2022/04/10 03:05:39;;;;;;;;;;;;;;;5.68;100.00;99934.81;4935664;29;19927;-83
2022/04/10 03:08:04;;;;;;;;;;;;;;;5.70;100.00;99936.53;4935988;29;19961;-80
2022/04/10 03:10:30;;;;;;;;;;;;;;;5.70;100.00;99938.31;4935974;29;19957;-82
2022/04/10 03:12:55;;;;;;;;;;;;;;;5.73;100.00;99935.63;4935327;29;19926;-85
2022/04/10 03:15:20;;;;;;;;;;;;;;;5.74;100.00;99929.44;4935333;29;19969;-81
2022/04/10 03:17:45;;;;;;;;;;;;;;;5.74;100.00;99929.44;4936317;29;19919;-85
2022/04/10 03:20:11;;;;;;;;;;;;;;;5.75;100.00;99923.31;4936162;29;19925;-82
2022/04/10 03:22:36;;;;;;;;;;;;;;;5.78;100.00;99928.50;4934980;29;20425;-82
2022/04/10 03:25:02;;;;;;;;;;;;;;;5.79;100.00;99932.84;4936067;29;19923;-82
2022/04/10 03:27:27;;;;;;;;;;;;;;;5.80;100.00;99931.94;4936202;29;20091;-80
2022/04/10 03:29:52;;;;;;;;;;;;;;;5.79;100.00;99914.44;4933397;29;20021;-81
2022/04/10 03:32:18;;;;;;;;;;;;;;;5.81;100.00;99928.44;4935178;29;19919;-80
2022/04/10 03:34:43;;;;;;;;;;;;;;;5.82;100.00;99935.41;4935776;29;19922;-83
2022/04/10 03:37:08;;;;;;;;;;;;;;;5.85;100.00;99934.50;4935843;29;19974;-82
2022/04/10 03:39:33;;;;;;;;;;;;;;;5.85;100.00;99940.59;4935943;29;19930;-85
2022/04/10 03:41:58;;;;;;;;;;;;;;;5.85;100.00;99943.22;4935868;29;20322;-85
2022/04/10 03:44:24;;;;;;;;;;;;;;;5.86;100.00;99944.97;4934488;29;19922;-84
2022/04/10 03:46:49;;;;;;;;;;;;;;;5.88;100.00;99934.44;4935582;29;19926;-82
2022/04/10 03:49:14;;;;;;;;;;;;;;;5.89;100.00;99947.56;4935672;29;19950;-81
2022/04/10 03:51:39;;;;;;;;;;;;;;;5.91;100.00;99945.75;4935602;29;20009;-83
2022/04/10 03:54:05;;;;;;;;;;;;;;;5.94;100.00;99939.56;4935506;29;19923;-84
2022/04/10 03:56:30;;;;;;;;;;;;;;;6.22;100.00;99945.09;4935619;29;20006;-81
2022/04/10 03:58:55;;;;;;;;;;;;;;;5.58;100.00;99942.91;4934172;29;19923;-81
2022/04/10 04:01:21;;;;;;;;;;;;;;;5.42;100.00;99941.47;4935557;29;20317;-88
2022/04/10 04:03:46;;;;;;;;;;;;;;;5.18;100.00;99948.06;4935289;29;19930;-89
2022/04/10 04:06:11;;;;;;;;;;;;;;;4.98;100.00;99951.03;4935363;29;20388;-88
2022/04/10 04:08:36;;;;;;;;;;;;;;;4.83;100.00;99947.75;4933251;29;19922;-89
2022/04/10 04:11:02;;;;;;;;;;;;;;;4.73;100.00;99944.44;4935257;29;19966;-88
2022/04/10 04:13:27;;;;;;;;;;;;;;;4.68;100.00;99954.16;4933978;29;19926;-89
2022/04/10 04:15:52;;;;;;;;;;;;;;;4.57;100.00;99952.59;4933926;29;19930;-89
2022/04/10 04:18:18;;;;;;;;;;;;;;;4.47;100.00;99957.97;4935206;29;19922;-91
2022/04/10 04:20:43;;;;;;;;;;;;;;;4.41;100.00;99965.94;4934978;29;20354;-89
2022/04/10 04:23:08;;;;;;;;;;;;;;;4.35;100.00;99966.03;4933612;29;20342;-91
2022/04/10 04:25:33;;;;;;;;;;;;;;;4.29;100.00;99971.34;4934832;29;19923;-91
2022/04/10 04:27:59;;;;;;;;;;;;;;;4.28;100.00;99967.88;4934720;29;19927;-82
2022/04/10 04:30:24;;;;;;;;;;;;;;;4.21;100.00;99970.59;4932455;29;19922;-88
2022/04/10 04:32:51;;;;;;;;;;;;;;;4.19;100.00;99975.88;4934766;29;19923;-82
2022/04/10 04:35:16;;;;;;;;;;;;;;;4.16;100.00;99975.91;4935047;29;19923;-86
2022/04/10 04:37:41;;;;;;;;;;;;;;;4.10;100.00;99976.00;4933712;29;19926;-86
2022/04/10 12:51:09;;;;;;;;;;;;;;;4.47;74.09;100048.97;5167072;23;19980;-80
2022/04/10 12:53:35;;;;;;;;;;;;;;;4.66;75.93;100050.44;4943548;29;19927;-80
2022/04/10 12:56:00;;;;;;;;;;;;;;;4.74;78.10;100050.31;4945004;28;20365;-81
2022/04/10 12:58:29;;;;;;;;;;;;;;;4.73;79.73;100059.09;4944109;29;19918;-79
2022/04/10 13:00:56;;;;;;;;;;;;;;;4.75;81.40;100059.06;4944542;28;19923;-79
2022/04/10 13:03:22;;;;;;;;;;;;;;;4.69;82.26;100052.13;4944629;28;19919;-80
2022/04/10 13:05:55;;;;;;;;;;;;;;;4.62;83.11;100053.13;4941705;29;19919;-81
2022/04/10 13:08:22;;;;;;;;;;;;;;;4.51;84.08;100051.50;4944388;29;19919;-80
2022/04/10 13:10:48;;;;;;;;;;;;;;;4.24;85.38;100047.50;4944261;29;19922;-80
2022/04/10 13:13:13;;;;;;;;;;;;;;;4.01;86.76;100045.16;4943101;29;20405;-80
2022/04/10 13:15:38;;;;;;;;;;;;;;;4.06;88.73;100045.97;4943555;29;19918;-80
2022/04/10 13:18:05;;;;;;;;;;;;;;;4.03;90.37;100053.88;4943283;29;19922;-80
2022/04/10 13:20:31;;;;;;;;;;;;;;;4.19;92.77;100047.53;4943214;29;19969;-80
2022/04/10 13:22:56;;;;;;;;;;;;;;;4.36;95.92;100049.09;4944229;28;20363;-79
2022/04/10 13:25:22;;;;;;;;;;;;;;;4.57;98.89;100036.59;4942979;29;19918;-79
2022/04/10 13:27:47;;;;;;;;;;;;;;;4.68;100.00;100039.91;4942715;29;20299;-80
2022/04/10 13:30:13;;;;;;;;;;;;;;;4.82;100.00;100037.94;4942686;29;19966;-79
2022/04/10 13:32:38;;;;;;;;;;;;;;;4.89;100.00;100026.44;4942769;29;19921;-79
2022/04/10 13:35:03;;;;;;;;;;;;;;;4.95;100.00;100024.63;4941906;29;19922;-79
2022/04/10 13:37:29;;;;;;;;;;;;;;;4.98;100.00;100014.94;4942938;29;19978;-79
2022/04/10 13:39:54;;;;;;;;;;;;;;;5.02;100.00;100021.84;4943954;29;20358;-80
2022/04/10 13:42:20;;;;;;;;;;;;;;;5.08;100.00;100023.53;4943999;28;20013;-80
2022/04/10 13:44:46;;;;;;;;;;;;;;;5.12;100.00;100009.44;4944252;28;19922;-80
2022/04/10 13:47:11;;;;;;;;;;;;;;;5.13;100.00;100003.31;4942626;29;19914;-80
2022/04/10 13:49:37;;;;;;;;;;;;;;;5.18;100.00;100000.59;4942400;29;19919;-80
2022/04/10 13:52:02;;;;;;;;;;;;;;;5.21;100.00;100004.03;4943957;29;19995;-80
2022/04/10 13:54:28;;;;;;;;;;;;;;;5.23;100.00;100004.91;4943992;29;19965;-79
2022/04/10 13:56:53;;;;;;;;;;;;;;;5.26;100.00;99999.59;4944060;28;19969;-80
2022/04/10 13:59:18;;;;;;;;;;;;;;;5.31;100.00;100001.25;4947445;29;19962;-80
2022/04/10 14:01:44;;;;;;;;;;;;;;;5.34;100.00;100001.19;4946971;29;19966;-80
2022/04/10 14:04:09;;;;;;;;;;;;;;;5.37;100.00;99995.88;4945982;29;19981;-80
2022/04/10 14:06:34;;;;;;;;;;;;;;;5.40;100.00;100001.94;4947618;29;20346;-80
2022/04/10 14:09:00;;;;;;;;;;;;;;;5.41;100.00;99994.94;4946020;29;19974;-80
2022/04/10 14:11:29;;;;;;;;;;;;;;;5.45;100.00;99988.72;4946857;29;20355;-79
2022/04/10 14:13:54;;;;;;;;;;;;;;;5.44;100.00;99989.59;4945687;29;20349;-80
2022/04/10 14:16:20;;;;;;;;;;;;;;;5.49;100.00;99989.53;4946860;29;20023;-79
2022/04/10 14:18:45;;;;;;;;;;;;;;;5.51;100.00;99979.88;4945843;29;19985;-80
2022/04/10 14:21:10;;;;;;;;;;;;;;;5.53;100.00;99992.06;4944626;29;19929;-80
2022/04/10 14:23:36;;;;;;;;;;;;;;;5.56;100.00;99981.50;4946707;29;19918;-79
2022/04/10 14:26:01;;;;;;;;;;;;;;;5.57;100.00;99971.88;4961562;28;19927;-80
2022/04/10 14:28:27;;;;;;;;;;;;;;;5.32;100.00;99976.72;4946668;29;19919;-80
2022/04/10 14:30:52;;;;;;;;;;;;;;;4.67;100.00;99988.28;4946694;29;20450;-80
2022/04/10 14:33:18;;;;;;;;;;;;;;;4.40;100.00;99968.59;4947287;28;19919;-79
2022/04/10 14:35:43;;;;;;;;;;;;;;;4.32;100.00;99973.94;4945460;28;19918;-79
2022/04/10 14:38:13;;;;;;;;;;;;;;;4.30;100.00;99973.09;4946671;29;19963;-79
2022/04/10 14:40:38;;;;;;;;;;;;;;;4.24;100.00;99974.03;4946391;29;19918;-79
2022/04/10 14:43:03;;;;;;;;;;;;;;;4.22;100.00;99961.84;4947545;28;20366;-79
2022/04/10 14:45:29;;;;;;;;;;;;;;;4.06;100.00;99964.69;4946366;29;20373;-80
2022/04/10 14:47:54;;;;;;;;;;;;;;;4.14;100.00;99959.34;4943476;29;19919;-79
2022/04/10 14:50:19;;;;;;;;;;;;;;;4.10;100.00;99961.13;4941419;29;19926;-80
2022/04/10 14:52:44;;;;;;;;;;;;;;;4.03;99.44;99963.84;4946428;29;19919;-80
2022/04/10 14:55:10;;;;;;;;;;;;;;;4.05;98.55;99962.06;4944301;29;19975;-80
2022/04/10 14:57:35;;;;;;;;;;;;;;;3.99;97.54;99957.78;4945357;29;19923;-80
2022/04/10 15:00:01;;;;;;;;;;;;;;;3.91;96.60;99957.91;4942221;29;20029;-79
2022/04/10 15:02:28;;;;;;;;;;;;;;;3.91;95.76;99959.63;4945056;29;19947;-79
2022/04/10 15:04:54;;;;;;;;;;;;;;;3.82;95.01;99971.97;4944790;29;19927;-79
2022/04/10 15:07:19;;;;;;;;;;;;;;;3.75;94.34;99967.69;4946627;28;19922;-79
2022/04/10 15:09:45;;;;;;;;;;;;;;;3.76;93.82;99964.16;4946347;28;19923;-80
2022/04/10 15:12:11;;;;;;;;;;;;;;;3.77;93.19;99962.44;4946121;29;19951;-80
2022/04/10 15:14:36;;;;;;;;;;;;;;;3.71;92.50;99955.50;4944675;29;19922;-80
2022/04/10 15:17:02;;;;;;;;;;;;;;;3.75;92.23;99964.19;4945780;29;20357;-79
2022/04/10 15:19:27;;;;;;;;;;;;;;;3.74;91.64;99965.09;4944532;29;20039;-79
2022/04/10 15:21:52;;;;;;;;;;;;;;;3.72;91.36;99964.22;4945568;29;19923;-79
2022/04/10 15:24:18;;;;;;;;;;;;;;;3.71;90.90;99963.38;4944647;29;19918;-79
2022/04/10 15:26:46;;;;;;;;;;;;;;;3.61;90.63;99967.00;4945810;29;20326;-79
2022/04/10 15:29:14;;;;;;;;;;;;;;;3.63;90.45;99960.84;4943693;29;19918;-79
2022/04/10 15:31:39;;;;;;;;;;;;;;;3.65;90.13;99955.56;4944209;29;19923;-79
2022/04/10 15:34:05;;;;;;;;;;;;;;;3.53;89.85;99958.38;4943996;29;20306;-78
2022/04/10 15:36:30;;;;;;;;;;;;;;;3.51;89.74;99963.63;4945718;29;20013;-80
2022/04/10 15:38:55;;;;;;;;;;;;;;;3.51;89.71;99962.72;4944203;29;19919;-80
2022/04/10 15:41:20;;;;;;;;;;;;;;;3.45;89.56;99956.69;4943931;29;20366;-79
2022/04/10 15:43:46;;;;;;;;;;;;;;;3.45;89.64;99954.06;4943692;29;20313;-80
2022/04/10 15:46:11;;;;;;;;;;;;;;;3.51;89.56;99955.75;4944251;29;19914;-80
2022/04/10 15:48:37;;;;;;;;;;;;;;;3.42;89.38;99956.72;4944058;29;19950;-79
2022/04/10 15:51:02;;;;;;;;;;;;;;;3.43;89.14;99950.59;4943479;29;20362;-80
2022/04/10 15:53:28;;;;;;;;;;;;;;;3.42;89.33;99948.84;4943806;29;19922;-79
2022/04/10 15:55:53;;;;;;;;;;;;;;;3.42;89.07;99951.47;4945476;29;19929;-80
2022/04/10 15:58:18;;;;;;;;;;;;;;;3.40;89.07;99948.00;4945298;29;20010;-79
2022/04/10 16:00:44;;;;;;;;;;;;;;;3.44;88.98;99947.06;4945333;29;20401;-80
2022/04/10 16:03:10;;;;;;;;;;;;;;;3.37;88.85;99937.56;4945021;28;19930;-80
2022/04/10 16:05:35;;;;;;;;;;;;;;;3.31;88.84;99940.25;4944213;29;20044;-81
2022/04/10 16:08:00;;;;;;;;;;;;;;;3.35;88.80;99941.06;4944806;29;19934;-80
2022/04/10 16:10:26;;;;;;;;;;;;;;;3.36;88.51;99943.69;4944474;29;19922;-81
2022/04/10 16:12:51;;;;;;;;;;;;;;;3.38;88.35;99944.56;4943505;29;19915;-80
2022/04/10 16:15:16;;;;;;;;;;;;;;;3.41;88.36;99938.38;4945279;28;20005;-79
2022/04/10 16:17:42;;;;;;;;;;;;;;;3.35;88.40;99941.97;4944700;29;19915;-80
2022/04/10 16:20:08;;;;;;;;;;;;;;;3.34;88.13;99948.06;4943183;28;19973;-80
2022/04/10 16:22:34;;;;;;;;;;;;;;;3.31;88.20;99948.09;4945114;29;20001;-79
2022/04/10 16:24:59;;;;;;;;;;;;;;;3.35;88.20;99946.31;4944961;29;19970;-79
2022/04/10 16:30:10;;;;;;;;;;;;;;;3.33;88.11;99938.47;4944898;29;19929;-79
2022/04/10 16:32:40;;;;;;;;;;;;;;;3.32;87.85;99944.59;4943618;29;20358;-80
2022/04/10 16:35:06;;;;;;;;;;;;;;;3.29;87.88;99936.78;4941142;29;19923;-80
2022/04/10 16:37:33;;;;;;;;;;;;;;;3.27;87.80;99938.53;4943474;28;19929;-79
2022/04/10 16:39:58;;;;;;;;;;;;;;;3.22;87.80;99933.38;4944323;28;19930;-79
2022/04/10 16:42:24;;;;;;;;;;;;;;;3.30;87.59;99928.03;4944638;29;19918;-79
2022/04/10 16:44:49;;;;;;;;;;;;;;;3.24;87.49;99935.97;4943282;29;19981;-80
2022/04/10 16:47:19;;;;;;;;;;;;;;;3.28;87.57;99937.66;4944412;29;20375;-79
2022/04/10 16:49:44;;;;;;;;;;;;;;;3.25;87.28;99937.69;4941760;29;19930;-79
2022/04/10 16:52:09;;;;;;;;;;;;;;;3.24;87.43;99938.59;4942464;29;19935;-80
2022/04/10 16:54:47;;;;;;;;;;;;;;;3.24;87.29;99936.81;4943163;29;19918;-80
2022/04/10 16:57:12;;;;;;;;;;;;;;;3.30;87.33;99941.13;4944063;29;19923;-80
2022/04/10 16:59:38;;;;;;;;;;;;;;;3.28;87.21;99933.28;4944754;29;19925;-79
2022/04/10 17:02:03;;;;;;;;;;;;;;;3.22;87.16;99932.47;4944152;29;19949;-79
2022/04/10 17:04:30;;;;;;;;;;;;;;;3.26;87.03;99927.19;4943253;28;20543;-80
2022/04/10 17:06:55;;;;;;;;;;;;;;;3.28;87.01;99933.28;4944108;29;19923;-80
2022/04/10 17:09:21;;;;;;;;;;;;;;;3.27;86.76;99935.91;4943884;29;19923;-79
2022/04/10 17:11:47;;;;;;;;;;;;;;;3.26;86.53;99929.81;4944196;29;19936;-80
2022/04/10 17:14:12;;;;;;;;;;;;;;;3.20;86.48;99929.03;4943000;29;20042;-80
2022/04/10 17:16:37;;;;;;;;;;;;;;;3.23;86.14;99929.84;4944186;29;19958;-80
2022/04/10 17:19:02;;;;;;;;;;;;;;;3.23;85.98;99924.59;4941577;29;19923;-80
2022/04/10 17:21:28;;;;;;;;;;;;;;;3.18;85.91;99925.56;4943825;29;19978;-80
2022/04/10 17:23:53;;;;;;;;;;;;;;;3.19;85.85;99917.69;4944289;29;19962;-79
2022/04/10 17:26:18;;;;;;;;;;;;;;;3.14;85.57;99916.84;4943891;29;19974;-79
2022/04/10 17:28:43;;;;;;;;;;;;;;;3.15;85.40;99915.13;4943941;29;20349;-80
2022/04/10 17:31:09;;;;;;;;;;;;;;;3.23;85.40;99919.38;4942888;28;19919;-80
2022/04/10 17:33:34;;;;;;;;;;;;;;;3.11;85.03;99918.63;4945321;28;20400;-80
2022/04/10 17:36:00;;;;;;;;;;;;;;;3.12;85.05;99915.16;4944090;28;19942;-80
2022/04/10 17:38:25;;;;;;;;;;;;;;;3.11;85.14;99919.50;4946642;28;19945;-79
2022/04/10 17:40:51;;;;;;;;;;;;;;;3.07;85.15;99920.44;4950571;28;20294;-80
2022/04/10 17:43:16;;;;;;;;;;;;;;;3.12;85.08;99923.00;4947533;29;19957;-80
2022/04/10 17:45:41;;;;;;;;;;;;;;;3.18;84.87;99920.31;4947919;29;19965;-80
2022/04/10 17:48:07;;;;;;;;;;;;;;;3.17;84.66;99921.19;4947504;28;19933;-79
2022/04/10 17:50:32;;;;;;;;;;;;;;;3.14;84.43;99926.47;4947069;28;19946;-80
2022/04/10 17:52:57;;;;;;;;;;;;;;;3.09;84.36;99927.38;4947398;28;19973;-80
2022/04/10 17:55:24;;;;;;;;;;;;;;;3.15;84.19;99920.34;4945820;29;19918;-80
2022/04/10 17:57:50;;;;;;;;;;;;;;;3.06;84.01;99922.19;4945304;29;19930;-79
2022/04/10 18:00:16;;;;;;;;;;;;;;;3.09;83.84;99927.38;4958945;28;19923;-80
2022/04/10 18:02:42;;;;;;;;;;;;;;;3.09;83.59;99927.38;4951606;28;19922;-80
2022/04/10 18:05:07;;;;;;;;;;;;;;;3.04;83.67;99918.69;4941841;28;20310;-80
2022/04/10 18:07:32;;;;;;;;;;;;;;;3.11;83.65;99919.50;4946660;28;20066;-80
2022/04/10 18:09:58;;;;;;;;;;;;;;;3.07;83.42;99923.03;4945423;29;19970;-80
2022/04/10 18:12:23;;;;;;;;;;;;;;;3.12;83.43;99923.00;4947121;28;19958;-80
2022/04/10 18:14:48;;;;;;;;;;;;;;;3.16;83.19;99919.44;4938815;29;19926;-80
2022/04/10 18:17:14;;;;;;;;;;;;;;;3.09;83.19;99919.53;4957061;28;19934;-80
2022/04/10 18:19:40;;;;;;;;;;;;;;;3.11;83.13;99924.72;4941453;28;19949;-80
2022/04/10 18:22:10;;;;;;;;;;;;;;;3.09;83.04;99924.78;4946401;28;19934;-80
2022/04/10 18:24:36;;;;;;;;;;;;;;;3.12;82.95;99923.00;4947276;28;20481;-80
2022/04/10 18:27:02;;;;;;;;;;;;;;;3.09;82.62;99923.88;4946460;29;19919;-80
2022/04/10 18:29:27;;;;;;;;;;;;;;;3.05;82.35;99920.44;4946746;28;19974;-79
2022/04/10 18:31:52;;;;;;;;;;;;;;;3.11;82.27;99924.72;4948187;28;19918;-80
2022/04/10 18:34:19;;;;;;;;;;;;;;;3.08;81.97;99925.66;4944304;29;19918;-81
2022/04/10 18:36:44;;;;;;;;;;;;;;;3.09;81.88;99927.38;4946090;28;19923;-80
2022/04/10 18:39:11;;;;;;;;;;;;;;;3.17;81.77;99923.81;4946186;28;20452;-80
2022/04/10 18:41:36;;;;;;;;;;;;;;;3.10;81.46;99912.53;4945936;28;19930;-80
2022/04/10 18:44:02;;;;;;;;;;;;;;;3.09;81.39;99916.03;4945550;28;19923;-80
2022/04/10 18:46:27;;;;;;;;;;;;;;;3.07;81.20;99926.50;4945746;28;20045;-79
2022/04/10 18:51:36;;;;;;;;;;;;;;;3.04;80.99;99931.78;4946161;28;19980;-80
2022/04/10 18:54:02;;;;;;;;;;;;;;;3.09;80.82;99936.97;4946332;29;19961;-80
2022/04/10 18:56:27;;;;;;;;;;;;;;;3.00;80.78;99926.59;4945589;28;20320;-80
2022/04/10 18:58:52;;;;;;;;;;;;;;;3.06;80.92;99927.41;4946852;28;19965;-80
2022/04/10 19:01:18;;;;;;;;;;;;;;;3.07;80.64;99934.38;4945297;28;20301;-80
2022/04/10 19:03:43;;;;;;;;;;;;;;;3.07;80.67;99937.00;4944719;29;19919;-80
2022/04/10 19:06:11;;;;;;;;;;;;;;;3.08;80.47;99941.34;4945303;29;19926;-80
2022/04/10 19:08:37;;;;;;;;;;;;;;;3.11;80.32;99939.56;4960497;28;19918;-80
2022/04/10 19:11:02;;;;;;;;;;;;;;;3.14;80.01;99944.78;4944124;28;19923;-80
2022/04/10 19:13:27;;;;;;;;;;;;;;;3.09;79.73;99952.69;4945218;28;19923;-80
2022/04/10 19:15:53;;;;;;;;;;;;;;;3.02;79.69;99946.66;4946091;28;19972;-80
2022/04/10 19:18:18;;;;;;;;;;;;;;;3.08;79.54;99951.81;4946061;28;19927;-80
2022/04/10 19:20:47;;;;;;;;;;;;;;;3.03;79.41;99952.75;4942828;29;19957;-80
2022/04/10 19:23:12;;;;;;;;;;;;;;;3.05;79.38;99953.63;4944645;28;19934;-80
2022/04/10 19:25:40;;;;;;;;;;;;;;;3.03;79.15;99956.25;4944322;28;19922;-80
2022/04/10 19:28:06;;;;;;;;;;;;;;;3.08;79.10;99951.81;4947495;28;19922;-80
2022/04/10 19:30:31;;;;;;;;;;;;;;;3.10;78.85;99954.44;4945269;28;19923;-80
2022/04/10 19:32:56;;;;;;;;;;;;;;;3.14;78.71;99957.88;4944800;29;19926;-81
2022/04/10 19:35:21;;;;;;;;;;;;;;;3.16;78.67;99953.50;4942778;29;19929;-81
2022/04/10 19:37:47;;;;;;;;;;;;;;;3.11;78.45;99957.91;4944400;29;20061;-81
2022/04/10 19:40:13;;;;;;;;;;;;;;;3.15;78.56;99962.25;4945676;29;20370;-81
2022/04/10 19:42:38;;;;;;;;;;;;;;;3.18;78.25;99963.06;4946779;28;20020;-81
2022/04/10 19:45:04;;;;;;;;;;;;;;;3.15;78.05;99967.47;4944559;29;20395;-80
2022/04/10 19:47:29;;;;;;;;;;;;;;;3.14;77.87;99960.50;4946753;28;19930;-81
2022/04/10 19:49:54;;;;;;;;;;;;;;;3.16;77.77;99969.19;4942515;28;19934;-80
2022/04/10 19:52:20;;;;;;;;;;;;;;;3.15;77.57;99973.56;4945395;29;19934;-80
2022/04/10 19:54:46;;;;;;;;;;;;;;;3.18;77.35;99972.69;4944085;28;19927;-80
2022/04/10 19:57:12;;;;;;;;;;;;;;;3.20;77.08;99976.16;4943804;29;20005;-81
2022/04/10 19:59:38;;;;;;;;;;;;;;;3.21;76.94;99976.13;4945702;29;20390;-80
2022/04/10 20:02:04;;;;;;;;;;;;;;;3.19;76.88;99982.25;4942314;29;19929;-80
2022/04/10 20:04:29;;;;;;;;;;;;;;;3.21;76.88;99968.28;4944407;28;19922;-80
2022/04/10 20:06:54;;;;;;;;;;;;;;;3.25;76.91;99969.97;4945242;28;19998;-80
2022/04/10 20:09:19;;;;;;;;;;;;;;;3.21;76.80;99973.53;4943727;29;19972;-81
2022/04/10 20:11:45;;;;;;;;;;;;;;;3.24;76.77;99973.50;4945169;29;19918;-81
2022/04/10 20:14:10;;;;;;;;;;;;;;;3.23;76.36;99979.59;4944568;29;19918;-81
2022/04/10 20:16:35;;;;;;;;;;;;;;;3.23;76.52;99970.88;4944676;29;19926;-81
2022/04/10 20:19:01;;;;;;;;;;;;;;;3.23;76.64;99963.88;4944836;29;19987;-81
2022/04/10 20:21:26;;;;;;;;;;;;;;;3.25;76.73;99964.72;4944053;29;19938;-81
2022/04/10 20:23:51;;;;;;;;;;;;;;;3.24;76.68;99973.50;4944741;29;20212;-80
2022/04/10 20:26:16;;;;;;;;;;;;;;;3.20;76.54;99966.53;4944661;29;19934;-81
2022/04/10 20:28:43;;;;;;;;;;;;;;;3.25;76.42;99966.50;4945083;29;19926;-81
2022/04/10 20:31:09;;;;;;;;;;;;;;;3.27;76.29;99972.56;4944561;28;19923;-80
2022/04/10 20:33:34;;;;;;;;;;;;;;;3.23;76.13;99965.66;4944400;29;20039;-81
2022/04/10 20:36:00;;;;;;;;;;;;;;;3.24;76.22;99965.63;4957800;28;20013;-81
2022/04/10 20:38:25;;;;;;;;;;;;;;;3.21;76.08;99968.28;4943664;29;19922;-81
2022/04/10 20:40:50;;;;;;;;;;;;;;;3.20;75.71;99970.91;4943427;29;20069;-81
2022/04/10 20:43:15;;;;;;;;;;;;;;;3.24;75.77;99967.41;4958475;28;19923;-81
2022/04/10 20:45:40;;;;;;;;;;;;;;;3.22;75.58;99971.75;4944422;29;19919;-81
2022/04/10 20:48:06;;;;;;;;;;;;;;;3.26;75.65;99966.47;4942743;29;19930;-81
2022/04/10 20:50:33;;;;;;;;;;;;;;;3.27;75.69;99964.72;4941849;29;19922;-80
2022/04/10 20:52:58;;;;;;;;;;;;;;;3.27;75.33;99964.72;4943518;29;20023;-80
2022/04/10 20:55:24;;;;;;;;;;;;;;;3.27;75.23;99972.56;4944139;29;20017;-81
2022/04/10 20:57:49;;;;;;;;;;;;;;;3.31;75.11;99963.81;4941015;29;19922;-80
2022/04/10 21:00:14;;;;;;;;;;;;;;;3.21;74.97;99963.03;4943986;28;19922;-81
2022/04/10 21:02:40;;;;;;;;;;;;;;;3.24;75.09;99968.25;4944273;29;19930;-80
2022/04/10 21:05:06;;;;;;;;;;;;;;;3.28;75.06;99963.84;4942056;29;19926;-81
2022/04/10 21:07:32;;;;;;;;;;;;;;;3.32;75.00;99957.72;4942181;29;19926;-82
2022/04/10 21:09:57;;;;;;;;;;;;;;;3.25;74.91;99961.25;4942622;28;19949;-81
2022/04/10 21:12:22;;;;;;;;;;;;;;;3.30;74.77;99962.06;4944075;29;19970;-81
2022/04/10 21:14:48;;;;;;;;;;;;;;;3.34;74.77;99963.78;4943983;29;19922;-81
2022/04/10 21:17:13;;;;;;;;;;;;;;;3.33;74.79;99963.81;4944142;29;20454;-81
2022/04/10 21:19:38;;;;;;;;;;;;;;;3.37;74.70;99958.53;4941654;29;19977;-81
2022/04/10 21:22:03;;;;;;;;;;;;;;;3.40;74.51;99958.50;4944195;29;20098;-80
2022/04/10 21:24:29;;;;;;;;;;;;;;;3.38;74.26;99973.38;4943043;29;19985;-80
2022/04/10 21:26:54;;;;;;;;;;;;;;;3.37;74.34;99974.25;4942845;29;19923;-81
2022/04/10 21:29:19;;;;;;;;;;;;;;;3.40;74.19;99975.97;4944374;28;19980;-82
2022/04/10 21:31:44;;;;;;;;;;;;;;;3.43;74.35;99973.28;4942943;29;19925;-81
2022/04/10 21:34:10;;;;;;;;;;;;;;;3.43;74.29;99968.94;4941856;29;19929;-80
2022/04/10 21:36:35;;;;;;;;;;;;;;;3.45;74.34;99967.16;4942660;29;19926;-81
2022/04/10 21:39:01;;;;;;;;;;;;;;;3.46;74.10;99965.41;4942437;29;20408;-81
2022/04/10 21:41:26;;;;;;;;;;;;;;;3.47;73.78;99968.91;4943904;29;19969;-81
2022/04/10 21:43:51;;;;;;;;;;;;;;;3.48;73.67;99970.63;4943118;28;20289;-80
2022/04/10 21:46:17;;;;;;;;;;;;;;;3.45;73.50;99968.91;4945395;28;19926;-81
2022/04/10 21:48:42;;;;;;;;;;;;;;;3.45;73.51;99967.16;4943961;28;19923;-81
2022/04/10 21:51:07;;;;;;;;;;;;;;;3.46;73.65;99983.72;4941473;28;20262;-81
2022/04/10 21:53:33;;;;;;;;;;;;;;;3.45;73.45;99985.50;4942787;29;19923;-80
2022/04/10 21:55:59;;;;;;;;;;;;;;;3.43;73.19;99989.00;4942668;29;19961;-81
2022/04/10 21:58:24;;;;;;;;;;;;;;;3.42;73.04;99988.16;4942502;29;19923;-80
2022/04/10 22:00:51;;;;;;;;;;;;;;;3.47;73.11;99989.88;4943758;29;19929;-80
2022/04/10 22:03:16;;;;;;;;;;;;;;;3.44;73.01;99982.91;4942246;29;19952;-81
2022/04/10 22:05:42;;;;;;;;;;;;;;;3.45;73.18;99980.25;4941743;28;19931;-80
2022/04/10 22:08:07;;;;;;;;;;;;;;;3.46;72.97;99978.50;4943676;29;19919;-80
2022/04/10 22:10:32;;;;;;;;;;;;;;;3.44;73.28;99978.50;4943543;28;19977;-80
2022/04/10 22:12:58;;;;;;;;;;;;;;;3.40;72.97;99976.81;4944301;28;20013;-81
2022/04/10 22:15:23;;;;;;;;;;;;;;;3.46;72.86;99973.25;4944687;28;20014;-81
2022/04/10 22:17:48;;;;;;;;;;;;;;;3.52;72.79;99967.09;4942914;28;20013;-81
2022/04/10 22:20:13;;;;;;;;;;;;;;;3.53;72.69;99974.09;4946046;29;20362;-81
2022/04/10 22:22:39;;;;;;;;;;;;;;;3.52;72.43;99970.56;4945734;29;20330;-80
2022/04/10 22:25:05;;;;;;;;;;;;;;;3.46;72.57;99965.41;4947117;29;20366;-82
2022/04/10 22:27:30;;;;;;;;;;;;;;;3.51;72.57;99966.25;4948138;28;20021;-82
2022/04/10 22:29:55;;;;;;;;;;;;;;;3.54;72.57;99965.31;4946669;29;20013;-81
2022/04/10 22:32:20;;;;;;;;;;;;;;;3.55;72.63;99967.06;4947083;29;19918;-82
2022/04/10 22:34:46;;;;;;;;;;;;;;;3.56;72.52;99960.94;4944773;29;19974;-80
2022/04/10 22:37:11;;;;;;;;;;;;;;;3.59;72.35;99959.16;4945448;29;20334;-81
2022/04/10 22:39:37;;;;;;;;;;;;;;;3.57;72.81;99960.03;4945239;29;19923;-80
2022/04/10 22:42:03;;;;;;;;;;;;;;;3.58;72.39;99951.31;4946501;29;19918;-80
2022/04/10 22:44:28;;;;;;;;;;;;;;;3.55;72.47;99946.09;4945133;29;20099;-80
2022/04/10 22:46:54;;;;;;;;;;;;;;;3.56;72.15;99946.09;4943471;29;19926;-81
2022/04/10 22:49:19;;;;;;;;;;;;;;;3.58;72.01;99943.44;4945354;28;20395;-81
2022/04/10 22:51:44;;;;;;;;;;;;;;;3.57;72.12;99945.19;4946221;28;19973;-81
2022/04/10 22:54:11;;;;;;;;;;;;;;;3.60;71.97;99941.66;4946466;29;19923;-81
2022/04/10 22:56:36;;;;;;;;;;;;;;;3.60;71.91;99933.81;4946278;29;20055;-81